Time;durP1;ratioP1;P1;durP2;ratioP2;P2;SDS_P1;SDS_P2;PMS_P1;PMS_P2;Temp;Humidity;BMP_temperature;BMP_pressure;BME280_temperature;BME280_humidity;BME280_pressure;Samples;Min_cycle;Max_cycle;Signal;HPM_P1;HPM_P2
2022/04/29 00:01:36;;;;;;;7.57;5.70;;;;;;;;;;6247699;23;20379;-79
2022/04/29 00:04:04;;;;;;;6.53;5.55;;;;;;;;;;6220909;23;20004;-78
2022/04/29 00:06:30;;;;;;;6.28;5.68;;;;;;;;;;6247739;23;20000;-82
2022/04/29 00:08:57;;;;;;;6.68;5.68;;;;;;;;;;6247560;23;20371;-80
2022/04/29 00:11:23;;;;;;;7.70;5.70;;;;;;;;;;6247602;23;20000;-81
2022/04/29 00:13:49;;;;;;;7.68;5.90;;;;;;;;;;6247496;23;19997;-79
2022/04/29 00:16:16;;;;;;;6.18;5.38;;;;;;;;;;6247631;23;19996;-78
2022/04/29 00:18:42;;;;;;;5.38;4.65;;;;;;;;;;6247530;23;20436;-79
2022/04/29 00:21:09;;;;;;;8.68;6.00;;;;;;;;;;6247595;23;20004;-82
2022/04/29 00:23:35;;;;;;;4.82;4.32;;;;;;;;;;6247402;23;19996;-77
2022/04/29 00:26:01;;;;;;;6.65;6.00;;;;;;;;;;6247319;23;19996;-77
2022/04/29 00:28:27;;;;;;;6.15;5.55;;;;;;;;;;6247225;23;20005;-82
2022/04/29 00:30:53;;;;;;;6.53;5.35;;;;;;;;;;6247263;23;20324;-79
2022/04/29 00:33:20;;;;;;;6.57;5.80;;;;;;;;;;6247415;23;20001;-81
2022/04/29 00:35:48;;;;;;;8.55;6.35;;;;;;;;;;6247346;23;19996;-80
2022/04/29 00:38:17;;;;;;;7.43;6.72;;;;;;;;;;6220169;23;20007;-82
2022/04/29 00:40:44;;;;;;;7.40;6.50;;;;;;;;;;6220388;23;20000;-79
2022/04/29 00:43:11;;;;;;;6.80;6.20;;;;;;;;;;6247135;23;20432;-80
2022/04/29 00:45:40;;;;;;;7.80;7.00;;;;;;;;;;6220293;23;20043;-80
2022/04/29 00:48:08;;;;;;;8.82;5.97;;;;;;;;;;6220400;23;20062;-79
2022/04/29 00:50:35;;;;;;;8.35;6.63;;;;;;;;;;6247002;23;20007;-80
2022/04/29 00:53:02;;;;;;;7.70;6.93;;;;;;;;;;6247180;23;19996;-80
2022/04/29 00:55:29;;;;;;;7.70;6.50;;;;;;;;;;6246985;23;20019;-82
2022/04/29 00:58:14;;;;;;;9.52;7.25;;;;;;;;;;6247101;23;20008;-79
2022/04/29 01:00:40;;;;;;;7.88;7.03;;;;;;;;;;6247104;23;20000;-80
2022/04/29 01:03:06;;;;;;;8.98;7.05;;;;;;;;;;6247074;23;19996;-84
2022/04/29 01:05:35;;;;;;;8.20;7.15;;;;;;;;;;6246988;23;20003;-80
2022/04/29 01:08:01;;;;;;;8.38;7.03;;;;;;;;;;6220120;23;20000;-83
2022/04/29 01:10:27;;;;;;;7.85;6.53;;;;;;;;;;6246975;23;20007;-79
2022/04/29 01:12:58;;;;;;;9.35;7.35;;;;;;;;;;6220027;23;20008;-81
2022/04/29 01:15:24;;;;;;;7.32;6.60;;;;;;;;;;6220078;23;20003;-80
2022/04/29 01:17:54;;;;;;;8.55;7.10;;;;;;;;;;6246817;23;19996;-81
2022/04/29 01:20:27;;;;;;;8.35;7.32;;;;;;;;;;6246914;23;20003;-79
2022/04/29 01:22:57;;;;;;;7.63;6.77;;;;;;;;;;6247061;23;20486;-84
2022/04/29 01:25:26;;;;;;;8.57;7.65;;;;;;;;;;6246871;23;20004;-79
2022/04/29 01:27:52;;;;;;;8.02;7.22;;;;;;;;;;6219886;23;20004;-80
2022/04/29 01:30:18;;;;;;;9.70;7.82;;;;;;;;;;6246769;23;20004;-80
2022/04/29 01:32:45;;;;;;;7.00;6.38;;;;;;;;;;6219844;23;20083;-79
2022/04/29 01:35:12;;;;;;;9.50;7.65;;;;;;;;;;6246733;23;20000;-81
2022/04/29 01:37:39;;;;;;;9.13;7.13;;;;;;;;;;6246719;23;20378;-81
2022/04/29 01:40:06;;;;;;;7.95;6.78;;;;;;;;;;6219863;23;20336;-82
2022/04/29 01:42:32;;;;;;;8.25;7.15;;;;;;;;;;6246582;23;20486;-83
2022/04/29 01:44:58;;;;;;;7.80;7.00;;;;;;;;;;6246728;23;20085;-81
2022/04/29 01:47:24;;;;;;;8.40;7.43;;;;;;;;;;6246684;23;20008;-81
2022/04/29 01:49:51;;;;;;;8.57;7.65;;;;;;;;;;6246355;23;20478;-80
2022/04/29 01:52:17;;;;;;;9.13;7.65;;;;;;;;;;6246619;23;20000;-81
2022/04/29 01:54:45;;;;;;;8.75;7.85;;;;;;;;;;6246303;23;20470;-79
2022/04/29 01:57:11;;;;;;;8.20;7.40;;;;;;;;;;6246506;23;20008;-78
2022/04/29 01:59:40;;;;;;;8.35;7.35;;;;;;;;;;6246485;23;20424;-79
2022/04/29 02:02:06;;;;;;;9.25;8.32;;;;;;;;;;6246675;23;20497;-81
2022/04/29 02:04:34;;;;;;;8.98;8.07;;;;;;;;;;6246521;23;20035;-82
2022/04/29 02:07:00;;;;;;;9.00;8.10;;;;;;;;;;6246674;23;20001;-80
2022/04/29 02:09:26;;;;;;;9.18;7.63;;;;;;;;;;6246505;23;20388;-81
2022/04/29 02:12:04;;;;;;;9.02;8.13;;;;;;;;;;6246301;23;20004;-80
2022/04/29 02:14:49;;;;;;;8.70;7.90;;;;;;;;;;6246378;23;20020;-77
2022/04/29 02:17:16;;;;;;;8.57;7.68;;;;;;;;;;6246389;23;19997;-78
2022/04/29 02:19:45;;;;;;;10.75;9.20;;;;;;;;;;6246348;23;19996;-82
2022/04/29 02:22:11;;;;;;;9.32;8.40;;;;;;;;;;6219450;23;20008;-83
2022/04/29 02:24:37;;;;;;;9.18;8.27;;;;;;;;;;6246267;23;20024;-82
2022/04/29 02:27:04;;;;;;;9.55;7.95;;;;;;;;;;6246311;23;20000;-77
2022/04/29 02:29:33;;;;;;;11.18;8.80;;;;;;;;;;6246325;23;20000;-77
2022/04/29 02:31:59;;;;;;;10.10;9.10;;;;;;;;;;6246118;23;19997;-82
2022/04/29 02:34:26;;;;;;;10.57;8.02;;;;;;;;;;6246244;23;20000;-77
2022/04/29 02:36:52;;;;;;;9.85;8.85;;;;;;;;;;6246162;23;20000;-78
2022/04/29 02:39:18;;;;;;;11.25;9.10;;;;;;;;;;6246149;23;19996;-80
2022/04/29 02:41:45;;;;;;;9.55;8.57;;;;;;;;;;6246399;23;20066;-79
2022/04/29 02:44:12;;;;;;;11.05;9.93;;;;;;;;;;6246192;23;20050;-82
2022/04/29 02:47:06;;;;;;;10.23;9.20;;;;;;;;;;6246178;23;20075;-79
2022/04/29 02:49:24;;;;;;;10.80;9.70;;;;;;;;;;6245863;23;20008;-78
2022/04/29 02:51:50;;;;;;;10.77;9.20;;;;;;;;;;6246090;23;20332;-80
2022/04/29 02:54:16;;;;;;;10.35;8.75;;;;;;;;;;6246015;23;19996;-79
2022/04/29 02:56:42;;;;;;;11.25;9.70;;;;;;;;;;6246242;23;20007;-77
2022/04/29 02:59:08;;;;;;;12.48;9.40;;;;;;;;;;6246127;23;20024;-80
2022/04/29 03:01:35;;;;;;;11.98;9.93;;;;;;;;;;6246786;23;20090;-81
2022/04/29 03:04:01;;;;;;;11.98;10.43;;;;;;;;;;6248199;23;20000;-77
2022/04/29 03:06:27;;;;;;;10.85;9.75;;;;;;;;;;6248150;23;20441;-79
2022/04/29 03:08:53;;;;;;;11.05;9.85;;;;;;;;;;6248161;23;20012;-79
2022/04/29 03:11:19;;;;;;;9.93;8.75;;;;;;;;;;6248010;23;20425;-78
2022/04/29 03:13:46;;;;;;;11.35;9.65;;;;;;;;;;6248233;23;19996;-77
2022/04/29 03:16:13;;;;;;;12.90;9.68;;;;;;;;;;6248079;23;20019;-79
2022/04/29 03:18:42;;;;;;;11.25;9.55;;;;;;;;;;6247963;23;20001;-80
2022/04/29 03:21:09;;;;;;;10.48;9.38;;;;;;;;;;6221080;23;20004;-79
2022/04/29 03:23:35;;;;;;;12.40;10.60;;;;;;;;;;6248183;23;20000;-79
2022/04/29 03:26:01;;;;;;;9.77;8.77;;;;;;;;;;6247985;23;19992;-82
2022/04/29 03:28:28;;;;;;;10.70;9.50;;;;;;;;;;6247980;23;20011;-80
2022/04/29 03:30:56;;;;;;;10.32;9.23;;;;;;;;;;6247902;23;19996;-78
2022/04/29 03:33:23;;;;;;;10.25;9.00;;;;;;;;;;6247747;23;20004;-81
2022/04/29 03:35:54;;;;;;;12.88;9.98;;;;;;;;;;6247889;23;20070;-82
2022/04/29 03:38:23;;;;;;;10.93;9.13;;;;;;;;;;6247837;23;20000;-79
2022/04/29 03:40:50;;;;;;;10.85;9.57;;;;;;;;;;6247931;23;19996;-80
2022/04/29 03:43:16;;;;;;;11.55;9.52;;;;;;;;;;6247832;23;20034;-82
2022/04/29 03:45:42;;;;;;;10.32;9.32;;;;;;;;;;6247794;23;20424;-82
2022/04/29 03:48:09;;;;;;;10.13;8.93;;;;;;;;;;6221018;23;20008;-80
2022/04/29 03:50:35;;;;;;;9.75;8.75;;;;;;;;;;6247959;23;20065;-79
2022/04/29 03:53:02;;;;;;;10.07;8.63;;;;;;;;;;6247736;23;20379;-80
2022/04/29 03:55:29;;;;;;;10.05;7.90;;;;;;;;;;6247115;23;20044;-79
2022/04/29 03:57:56;;;;;;;9.82;8.10;;;;;;;;;;6247636;23;20004;-82
2022/04/29 04:00:25;;;;;;;9.40;8.25;;;;;;;;;;6247618;23;20004;-80
2022/04/29 04:02:51;;;;;;;10.45;9.13;;;;;;;;;;6247764;23;19996;-79
2022/04/29 04:05:20;;;;;;;10.02;7.68;;;;;;;;;;6247687;23;20000;-78
2022/04/29 04:07:46;;;;;;;10.10;9.07;;;;;;;;;;6247668;23;19996;-79
2022/04/29 04:10:13;;;;;;;9.63;8.57;;;;;;;;;;6220977;23;20050;-79
2022/04/29 04:12:47;;;;;;;10.35;8.95;;;;;;;;;;6247078;23;20000;-81
2022/04/29 04:15:14;;;;;;;12.00;8.82;;;;;;;;;;6247539;23;20004;-78
2022/04/29 04:17:43;;;;;;;9.45;8.35;;;;;;;;;;6247487;23;20001;-79
2022/04/29 04:20:12;;;;;;;12.25;8.93;;;;;;;;;;6247545;23;20000;-80
2022/04/29 04:22:39;;;;;;;10.20;8.88;;;;;;;;;;6247109;23;20440;-83
2022/04/29 04:25:05;;;;;;;9.43;7.72;;;;;;;;;;6220870;23;20004;-78
2022/04/29 04:27:32;;;;;;;9.93;8.32;;;;;;;;;;6247179;23;20012;-81
2022/04/29 04:29:58;;;;;;;9.90;8.85;;;;;;;;;;6247257;23;20487;-83
2022/04/29 04:32:25;;;;;;;9.90;8.70;;;;;;;;;;6220317;23;20004;-83
2022/04/29 04:34:53;;;;;;;9.52;7.97;;;;;;;;;;6247390;23;20046;-81
2022/04/29 04:37:20;;;;;;;9.95;8.90;;;;;;;;;;6247378;23;20003;-81
2022/04/29 04:39:46;;;;;;;13.65;9.05;;;;;;;;;;6247018;23;20023;-82
2022/04/29 04:42:13;;;;;;;10.98;9.27;;;;;;;;;;6247184;23;20000;-79
2022/04/29 04:44:39;;;;;;;10.50;9.15;;;;;;;;;;6247109;23;20000;-79
2022/04/29 04:47:05;;;;;;;11.52;9.65;;;;;;;;;;6247181;23;20001;-82
2022/04/29 04:49:32;;;;;;;10.15;9.05;;;;;;;;;;6246859;23;20031;-83
2022/04/29 04:51:58;;;;;;;11.45;9.52;;;;;;;;;;6247095;23;20064;-80
2022/04/29 04:54:24;;;;;;;10.73;9.32;;;;;;;;;;6246616;23;20016;-82
2022/04/29 04:56:50;;;;;;;10.82;8.73;;;;;;;;;;6247095;23;20015;-84
2022/04/29 04:59:16;;;;;;;9.77;8.80;;;;;;;;;;6247034;23;20023;-82
2022/04/29 05:01:46;;;;;;;9.70;8.68;;;;;;;;;;6247056;23;20011;-82
2022/04/29 05:04:12;;;;;;;11.00;9.57;;;;;;;;;;6246915;23;19992;-79
2022/04/29 05:06:38;;;;;;;10.77;9.65;;;;;;;;;;6246198;23;20004;-79
2022/04/29 05:09:04;;;;;;;12.05;9.80;;;;;;;;;;6246864;23;20000;-79
2022/04/29 05:11:31;;;;;;;11.25;8.98;;;;;;;;;;6246888;23;20000;-82
2022/04/29 05:13:57;;;;;;;10.05;9.05;;;;;;;;;;6246887;23;20007;-80
2022/04/29 05:16:24;;;;;;;10.40;8.30;;;;;;;;;;6246828;23;20050;-79
2022/04/29 05:18:50;;;;;;;10.57;9.48;;;;;;;;;;6246918;23;20091;-78
2022/04/29 05:21:17;;;;;;;11.10;10.00;;;;;;;;;;6246851;23;20000;-82
2022/04/29 05:23:43;;;;;;;12.63;10.93;;;;;;;;;;6219799;23;20387;-78
2022/04/29 05:26:09;;;;;;;11.27;9.32;;;;;;;;;;6243862;23;20042;-81
2022/04/29 05:28:35;;;;;;;11.57;9.80;;;;;;;;;;6244965;23;20384;-80
2022/04/29 05:31:01;;;;;;;11.75;9.30;;;;;;;;;;6245228;23;20010;-78
2022/04/29 05:33:28;;;;;;;10.48;8.82;;;;;;;;;;6245289;23;20008;-79
2022/04/29 05:35:55;;;;;;;9.20;8.30;;;;;;;;;;6245687;23;20015;-80
2022/04/29 05:38:21;;;;;;;10.48;8.85;;;;;;;;;;6214658;23;20000;-81
2022/04/29 05:43:32;;;;;;;;;;;;;;;;;;6244825;23;20143;-83
2022/04/29 05:45:58;;;;;;;9.57;8.57;;;;;;;;;;6243737;23;20431;-83
2022/04/29 05:48:24;;;;;;;10.88;8.60;;;;;;;;;;6216857;23;20004;-82
2022/04/29 05:50:53;;;;;;;10.98;8.82;;;;;;;;;;6243259;23;20000;-80
2022/04/29 05:53:19;;;;;;;9.57;8.57;;;;;;;;;;6242310;23;20008;-80
2022/04/29 05:55:45;;;;;;;9.60;8.60;;;;;;;;;;6242186;23;20035;-82
2022/04/29 05:58:11;;;;;;;10.25;8.75;;;;;;;;;;6243402;23;20019;-81
2022/04/29 06:00:37;;;;;;;10.20;8.48;;;;;;;;;;6243548;23;20015;-81
2022/04/29 06:03:04;;;;;;;10.43;9.07;;;;;;;;;;6243687;23;20075;-80
2022/04/29 06:05:32;;;;;;;10.25;9.00;;;;;;;;;;6243653;23;20058;-83
2022/04/29 06:07:59;;;;;;;9.77;8.45;;;;;;;;;;6243723;23;20415;-81
2022/04/29 06:10:25;;;;;;;10.30;9.25;;;;;;;;;;6243922;23;20046;-80
2022/04/29 06:12:51;;;;;;;9.60;8.27;;;;;;;;;;6243326;23;20380;-78
2022/04/29 06:15:17;;;;;;;9.30;8.40;;;;;;;;;;6243449;23;20004;-77
2022/04/29 06:17:44;;;;;;;10.18;8.95;;;;;;;;;;6243631;23;20417;-79
2022/04/29 06:20:11;;;;;;;10.93;9.52;;;;;;;;;;6216174;23;20173;-80
2022/04/29 06:22:55;;;;;;;9.68;8.68;;;;;;;;;;6243425;23;20006;-82
2022/04/29 06:25:22;;;;;;;9.68;8.52;;;;;;;;;;6243260;23;20008;-83
2022/04/29 06:27:48;;;;;;;9.07;8.07;;;;;;;;;;6242930;23;20075;-80
2022/04/29 06:30:14;;;;;;;8.93;8.02;;;;;;;;;;6243222;23;20058;-81
2022/04/29 06:32:40;;;;;;;10.02;8.65;;;;;;;;;;6243186;23;20336;-81
2022/04/29 06:35:07;;;;;;;8.95;8.05;;;;;;;;;;6242969;23;20015;-79
2022/04/29 06:37:34;;;;;;;8.85;7.95;;;;;;;;;;6243284;23;20016;-81
2022/04/29 06:40:00;;;;;;;9.15;8.27;;;;;;;;;;6242232;23;19996;-81
2022/04/29 06:42:26;;;;;;;9.57;8.57;;;;;;;;;;6243276;23;20051;-81
2022/04/29 06:44:53;;;;;;;10.07;8.70;;;;;;;;;;6242804;23;20093;-82
2022/04/29 06:47:19;;;;;;;10.50;9.40;;;;;;;;;;6243441;23;20411;-78
2022/04/29 06:49:45;;;;;;;9.68;8.68;;;;;;;;;;6243273;23;20000;-78
2022/04/29 06:52:11;;;;;;;8.52;7.53;;;;;;;;;;6242495;23;20662;-80
2022/04/29 06:54:37;;;;;;;8.75;7.93;;;;;;;;;;6240311;23;20114;-78
2022/04/29 06:57:04;;;;;;;9.73;8.73;;;;;;;;;;6242456;23;20014;-81
2022/04/29 06:59:31;;;;;;;9.30;8.00;;;;;;;;;;6243619;23;20428;-82
2022/04/29 07:01:58;;;;;;;11.45;9.25;;;;;;;;;;6243202;23;20455;-80
2022/04/29 07:04:29;;;;;;;11.27;8.50;;;;;;;;;;6243245;23;20004;-78
2022/04/29 07:06:56;;;;;;;9.10;8.05;;;;;;;;;;6243025;23;20103;-80
2022/04/29 07:09:23;;;;;;;9.25;8.10;;;;;;;;;;6242828;23;20004;-77
2022/04/29 07:11:49;;;;;;;8.57;7.63;;;;;;;;;;6243394;23;20004;-77
2022/04/29 07:14:15;;;;;;;8.93;7.75;;;;;;;;;;6242821;23;20000;-81
2022/04/29 07:16:41;;;;;;;8.48;7.68;;;;;;;;;;6242892;23;20332;-79
2022/04/29 07:19:07;;;;;;;8.10;6.95;;;;;;;;;;6243042;23;20004;-80
2022/04/29 07:21:33;;;;;;;8.73;7.82;;;;;;;;;;6216632;23;20442;-77
2022/04/29 07:24:00;;;;;;;8.57;7.78;;;;;;;;;;6243259;23;20032;-80
2022/04/29 07:26:26;;;;;;;9.65;8.07;;;;;;;;;;6243022;23;20032;-82
2022/04/29 07:28:52;;;;;;;8.18;7.35;;;;;;;;;;6243652;23;20004;-81
2022/04/29 07:31:18;;;;;;;9.75;8.35;;;;;;;;;;6243379;23;20457;-83
2022/04/29 07:33:44;;;;;;;9.70;8.20;;;;;;;;;;6216048;23;20392;-81
2022/04/29 07:41:46;;;;;;;9.90;8.87;;;;;;;;;;6243557;23;19926;-77
2022/04/29 07:44:13;;;;;;;9.23;8.32;;;;;;;;;;6243207;23;20665;-77
2022/04/29 07:46:42;;;;;;;8.32;7.07;;;;;;;;;;6242783;23;20506;-84
2022/04/29 07:49:09;;;;;;;8.65;7.85;;;;;;;;;;6243851;23;20004;-81
2022/04/29 07:51:35;;;;;;;8.27;7.40;;;;;;;;;;6244438;23;20546;-81
2022/04/29 07:54:01;;;;;;;7.55;6.85;;;;;;;;;;6244292;23;20001;-80
2022/04/29 07:56:27;;;;;;;8.20;7.40;;;;;;;;;;6244566;23;20000;-84
2022/04/29 07:59:01;;;;;;;8.23;7.32;;;;;;;;;;6245149;23;20003;-80
2022/04/29 08:01:27;;;;;;;7.03;6.22;;;;;;;;;;6244214;23;20004;-77
2022/04/29 08:03:53;;;;;;;9.02;6.78;;;;;;;;;;6217230;23;20062;-82
2022/04/29 08:06:20;;;;;;;7.05;6.10;;;;;;;;;;6245044;23;20034;-83
2022/04/29 08:08:47;;;;;;;7.28;6.18;;;;;;;;;;6244640;23;20004;-80
2022/04/29 08:11:14;;;;;;;7.13;6.43;;;;;;;;;;6244222;23;20004;-78
2022/04/29 08:13:42;;;;;;;7.32;6.63;;;;;;;;;;6245086;23;20035;-84
2022/04/29 08:16:09;;;;;;;7.13;6.20;;;;;;;;;;6244321;23;20096;-79
2022/04/29 08:18:35;;;;;;;6.38;5.78;;;;;;;;;;6244783;23;20000;-81
2022/04/29 08:21:01;;;;;;;6.45;5.85;;;;;;;;;;6244753;23;20011;-79
2022/04/29 08:23:27;;;;;;;7.95;6.60;;;;;;;;;;6217756;23;20039;-86
2022/04/29 08:25:53;;;;;;;6.93;6.28;;;;;;;;;;6244832;23;20004;-79
2022/04/29 08:28:20;;;;;;;6.13;5.60;;;;;;;;;;6244463;23;20000;-81
2022/04/29 08:30:46;;;;;;;6.55;5.88;;;;;;;;;;6244402;23;20004;-82
2022/04/29 08:33:13;;;;;;;6.45;5.72;;;;;;;;;;6244697;23;20012;-80
2022/04/29 08:35:39;;;;;;;5.18;4.70;;;;;;;;;;6244990;23;20492;-80
2022/04/29 08:38:10;;;;;;;5.40;4.93;;;;;;;;;;6244388;23;20008;-80
2022/04/29 08:40:43;;;;;;;5.72;5.05;;;;;;;;;;6244543;23;20000;-79
2022/04/29 08:43:12;;;;;;;5.33;4.83;;;;;;;;;;6244937;23;20050;-80
2022/04/29 08:45:38;;;;;;;6.10;5.50;;;;;;;;;;6244505;23;20027;-81
2022/04/29 08:48:04;;;;;;;8.02;4.82;;;;;;;;;;6244662;23;20019;-79
2022/04/29 08:50:31;;;;;;;6.22;4.90;;;;;;;;;;6244315;23;20131;-77
2022/04/29 08:52:57;;;;;;;5.85;5.25;;;;;;;;;;6243645;23;20000;-78
2022/04/29 09:01:08;;;;;;;6.82;4.43;;;;;;;;;;6244348;23;20016;-80
2022/04/29 09:03:35;;;;;;;5.57;4.97;;;;;;;;;;6217601;23;20313;-81
2022/04/29 09:06:03;;;;;;;6.15;4.88;;;;;;;;;;6217047;23;20062;-78
2022/04/29 09:08:33;;;;;;;5.65;5.13;;;;;;;;;;6244384;23;20004;-82
2022/04/29 09:11:00;;;;;;;5.55;5.05;;;;;;;;;;6243970;23;20008;-81
2022/04/29 09:13:28;;;;;;;4.72;4.28;;;;;;;;;;6244196;23;20011;-80
2022/04/29 09:15:58;;;;;;;5.03;4.55;;;;;;;;;;6244346;23;20324;-79
2022/04/29 09:18:37;;;;;;;4.82;4.38;;;;;;;;;;6244552;23;20101;-81
2022/04/29 09:21:08;;;;;;;5.38;4.88;;;;;;;;;;6243689;23;20065;-80
2022/04/29 09:23:36;;;;;;;4.72;4.32;;;;;;;;;;6244228;23;20006;-81
2022/04/29 09:26:06;;;;;;;5.13;4.63;;;;;;;;;;6243471;23;20054;-86
2022/04/29 09:28:36;;;;;;;5.95;4.75;;;;;;;;;;6242905;23;20428;-78
2022/04/29 09:31:03;;;;;;;5.53;5.00;;;;;;;;;;6243688;23;20004;-77
2022/04/29 09:33:30;;;;;;;5.80;4.78;;;;;;;;;;6244260;23;20073;-79
2022/04/29 09:35:57;;;;;;;5.40;4.90;;;;;;;;;;6244061;23;20018;-79
2022/04/29 09:41:08;;;;;;;5.13;4.25;;;;;;;;;;6243847;23;20015;-78
2022/04/29 09:43:35;;;;;;;6.03;4.95;;;;;;;;;;6243861;23;20004;-77
2022/04/29 09:46:20;;;;;;;4.85;4.35;;;;;;;;;;6243852;23;19997;-77
2022/04/29 09:49:06;;;;;;;5.03;4.53;;;;;;;;;;6243306;23;20004;-76
2022/04/29 09:51:52;;;;;;;5.70;4.90;;;;;;;;;;6243075;23;20087;-78
2022/04/29 09:54:18;;;;;;;5.03;4.47;;;;;;;;;;6243827;23;20024;-80
2022/04/29 09:57:02;;;;;;;7.65;4.80;;;;;;;;;;6243328;23;20078;-79
2022/04/29 09:59:36;;;;;;;14.63;7.40;;;;;;;;;;6243759;23;20478;-79
2022/04/29 10:02:03;;;;;;;4.97;4.47;;;;;;;;;;6242388;23;20004;-80
2022/04/29 10:04:34;;;;;;;5.13;4.18;;;;;;;;;;6243332;23;20004;-78
2022/04/29 10:07:03;;;;;;;8.65;5.32;;;;;;;;;;6243321;23;20004;-82
2022/04/29 10:09:31;;;;;;;9.00;5.18;;;;;;;;;;6243409;23;20031;-82
2022/04/29 10:11:58;;;;;;;6.63;4.75;;;;;;;;;;6242653;23;20011;-80
2022/04/29 10:14:27;;;;;;;8.05;5.65;;;;;;;;;;6243356;23;20015;-78
2022/04/29 10:22:29;;;;;;;4.65;4.25;;;;;;;;;;6243616;23;20062;-81
2022/04/29 10:24:56;;;;;;;5.28;4.22;;;;;;;;;;6243468;23;20000;-66
2022/04/29 10:27:22;;;;;;;8.50;5.30;;;;;;;;;;6242634;23;20022;-82
2022/04/29 10:29:50;;;;;;;4.80;4.40;;;;;;;;;;6215872;23;20073;-80
2022/04/29 10:32:16;;;;;;;6.80;4.82;;;;;;;;;;6243228;23;20032;-80
2022/04/29 10:34:43;;;;;;;4.75;4.18;;;;;;;;;;6242983;23;20051;-80
2022/04/29 10:37:15;;;;;;;5.15;4.35;;;;;;;;;;6243439;23;19996;-78
2022/04/29 10:39:43;;;;;;;6.47;4.50;;;;;;;;;;6243378;23;20008;-81
2022/04/29 10:42:09;;;;;;;5.57;4.13;;;;;;;;;;6243392;23;20008;-80
2022/04/29 10:44:55;;;;;;;5.60;4.22;;;;;;;;;;6243501;23;20009;-83
2022/04/29 10:47:38;;;;;;;5.13;4.15;;;;;;;;;;6243216;23;20004;-84
2022/04/29 10:50:24;;;;;;;4.75;3.88;;;;;;;;;;6243142;23;20011;-80
2022/04/29 10:53:00;;;;;;;4.63;4.22;;;;;;;;;;6240867;23;20008;-81
2022/04/29 10:55:26;;;;;;;5.63;4.30;;;;;;;;;;6197588;23;20024;-82
2022/04/29 10:57:52;;;;;;;4.80;4.40;;;;;;;;;;6212010;23;20052;-80
2022/04/29 11:00:22;;;;;;;4.35;3.95;;;;;;;;;;6212991;23;20000;-80
2022/04/29 11:02:48;;;;;;;5.80;4.15;;;;;;;;;;6212345;23;20009;-78
2022/04/29 11:05:35;;;;;;;4.72;4.10;;;;;;;;;;6212251;23;20011;-80
2022/04/29 11:08:11;;;;;;;5.85;4.22;;;;;;;;;;6212710;23;20368;-79
2022/04/29 11:10:56;;;;;;;9.38;5.55;;;;;;;;;;6213255;23;20005;-78
2022/04/29 11:13:23;;;;;;;;;;;;;;;;;;6213800;23;20107;-76
2022/04/29 11:15:51;;;;;;;8.15;5.47;;;;;;;;;;6185867;23;19900;-79
2022/04/29 11:18:19;;;;;;;5.90;4.72;;;;;;;;;;6212530;23;20100;-79
2022/04/29 11:20:46;;;;;;;6.07;4.40;;;;;;;;;;6212793;23;20111;-80
2022/04/29 11:25:59;;;;;;;4.05;3.65;;;;;;;;;;6214712;23;20078;-77
2022/04/29 11:28:28;;;;;;;6.32;4.20;;;;;;;;;;6215036;23;20005;-78
2022/04/29 11:31:01;;;;;;;4.82;4.07;;;;;;;;;;6215011;23;20420;-79
2022/04/29 11:33:28;;;;;;;4.80;4.27;;;;;;;;;;6215352;23;20048;-78
2022/04/29 11:36:01;;;;;;;5.35;4.05;;;;;;;;;;6214324;23;20436;-78
2022/04/29 11:38:29;;;;;;;4.72;4.22;;;;;;;;;;6214675;23;20087;-81
2022/04/29 11:40:55;;;;;;;5.20;4.32;;;;;;;;;;6188249;23;20331;-78
2022/04/29 11:43:25;;;;;;;45.92;18.98;;;;;;;;;;6214523;23;20008;-80
2022/04/29 11:46:10;;;;;;;5.70;4.32;;;;;;;;;;6214353;23;20012;-87
2022/04/29 11:48:36;;;;;;;4.72;4.00;;;;;;;;;;6214794;23;20071;-80
2022/04/29 11:51:05;;;;;;;11.52;7.30;;;;;;;;;;6214322;23;20150;-83
2022/04/29 11:54:09;;;;;;;6.68;4.43;;;;;;;;;;6214483;23;20015;-80
2022/04/29 11:56:46;;;;;;;5.10;4.55;;;;;;;;;;6214204;23;20016;-80
2022/04/29 11:59:12;;;;;;;6.00;4.78;;;;;;;;;;6213234;23;20071;-78
2022/04/29 12:01:38;;;;;;;6.05;4.18;;;;;;;;;;6211298;23;20007;-81
2022/04/29 12:04:05;;;;;;;5.97;4.72;;;;;;;;;;6186345;23;20487;-76
2022/04/29 12:06:31;;;;;;;7.90;5.20;;;;;;;;;;6213968;23;20000;-79
2022/04/29 12:08:57;;;;;;;4.10;3.70;;;;;;;;;;6214699;23;20009;-80
2022/04/29 12:11:24;;;;;;;4.72;3.72;;;;;;;;;;6187388;23;20467;-81
2022/04/29 12:13:50;;;;;;;9.38;6.00;;;;;;;;;;6214773;23;20020;-84
2022/04/29 12:16:16;;;;;;;7.43;4.88;;;;;;;;;;6214387;23;20082;-80
2022/04/29 12:18:43;;;;;;;6.95;5.60;;;;;;;;;;6214412;23;20004;-82
2022/04/29 12:21:10;;;;;;;57.88;22.52;;;;;;;;;;6213800;23;20027;-81
2022/04/29 12:23:36;;;;;;;16.33;8.38;;;;;;;;;;6214707;23;20001;-82
2022/04/29 12:26:03;;;;;;;59.33;22.25;;;;;;;;;;6214407;23;20012;-80
2022/04/29 12:28:30;;;;;;;67.47;25.40;;;;;;;;;;6212533;23;20000;-81
2022/04/29 12:36:55;;;;;;;55.92;22.55;;;;;;;;;;6215712;23;20035;-78
2022/04/29 12:39:25;;;;;;;8.77;4.90;;;;;;;;;;6215244;23;20001;-82
2022/04/29 12:42:18;;;;;;;22.33;9.10;;;;;;;;;;6214479;23;20000;-77
2022/04/29 12:45:05;;;;;;;6.57;4.43;;;;;;;;;;6210428;23;20336;-81
2022/04/29 12:47:39;;;;;;;12.40;5.82;;;;;;;;;;6215192;23;20008;-77
2022/04/29 12:50:24;;;;;;;18.50;7.45;;;;;;;;;;6214708;23;20375;-79
2022/04/29 12:53:00;;;;;;;7.47;4.20;;;;;;;;;;6215177;23;20333;-79
2022/04/29 12:55:27;;;;;;;7.38;4.40;;;;;;;;;;6233481;23;20385;-78
2022/04/29 12:58:04;;;;;;;10.18;5.65;;;;;;;;;;6245431;23;20012;-79
2022/04/29 13:00:31;;;;;;;5.43;4.25;;;;;;;;;;6244859;23;20055;-81
2022/04/29 13:03:00;;;;;;;5.28;4.03;;;;;;;;;;6245608;23;20004;-78
2022/04/29 13:05:27;;;;;;;4.55;3.60;;;;;;;;;;6244569;23;20003;-79
2022/04/29 13:07:54;;;;;;;4.43;3.47;;;;;;;;;;6245962;23;20000;-79
2022/04/29 13:10:20;;;;;;;5.25;3.53;;;;;;;;;;6245789;23;20328;-80
2022/04/29 13:12:47;;;;;;;4.82;3.28;;;;;;;;;;6243896;23;20015;-80
2022/04/29 13:15:13;;;;;;;5.50;3.70;;;;;;;;;;6218745;23;20001;-84
2022/04/29 13:17:39;;;;;;;12.93;10.05;;;;;;;;;;6218369;23;20744;-82
2022/04/29 13:20:08;;;;;;;4.28;3.85;;;;;;;;;;6245249;23;19997;-82
2022/04/29 13:22:34;;;;;;;5.43;3.72;;;;;;;;;;6245556;23;20011;-79
2022/04/29 13:25:04;;;;;;;4.15;3.75;;;;;;;;;;6245312;23;20458;-81
2022/04/29 13:27:30;;;;;;;4.07;3.67;;;;;;;;;;6244513;23;19996;-80
2022/04/29 13:29:56;;;;;;;5.28;3.63;;;;;;;;;;6245381;23;20057;-80
2022/04/29 13:32:22;;;;;;;3.55;3.25;;;;;;;;;;6218586;23;20091;-81
2022/04/29 13:34:52;;;;;;;4.10;3.58;;;;;;;;;;6246642;23;20065;-80
2022/04/29 13:37:21;;;;;;;4.85;3.35;;;;;;;;;;6246713;23;20175;-83
2022/04/29 13:39:47;;;;;;;4.03;3.35;;;;;;;;;;6246560;23;20008;-81
2022/04/29 13:42:13;;;;;;;5.53;3.40;;;;;;;;;;6246531;23;20011;-85
2022/04/29 13:44:40;;;;;;;4.38;3.70;;;;;;;;;;6245971;23;20000;-82
2022/04/29 13:47:07;;;;;;;5.22;3.50;;;;;;;;;;6219645;23;20004;-81
2022/04/29 13:49:34;;;;;;;3.88;3.40;;;;;;;;;;6246563;23;20007;-85
2022/04/29 13:53:07;;;;;;;3.88;3.35;;;;;;;;;;6245325;23;20016;-84
2022/04/29 13:54:46;;;;;;;4.70;3.88;;;;;;;;;;6245995;23;20458;-83
2022/04/29 13:57:12;;;;;;;7.35;6.07;;;;;;;;;;6246577;23;20008;-80
2022/04/29 13:59:38;;;;;;;5.68;5.15;;;;;;;;;;6246444;23;20050;-82
2022/04/29 14:02:04;;;;;;;4.50;4.00;;;;;;;;;;6246045;23;20004;-81
2022/04/29 14:04:33;;;;;;;5.00;4.40;;;;;;;;;;6246487;23;20000;-79
2022/04/29 14:06:59;;;;;;;4.68;4.18;;;;;;;;;;6246158;23;20550;-83
2022/04/29 14:09:25;;;;;;;5.13;4.60;;;;;;;;;;6245636;23;20328;-80
2022/04/29 14:11:52;;;;;;;6.60;4.57;;;;;;;;;;6246205;23;20008;-81
2022/04/29 14:14:18;;;;;;;4.75;4.25;;;;;;;;;;6246349;23;20000;-79
2022/04/29 14:16:44;;;;;;;5.20;4.65;;;;;;;;;;6246389;23;20004;-79
2022/04/29 14:19:10;;;;;;;6.40;5.70;;;;;;;;;;6246406;23;20050;-81
2022/04/29 14:21:36;;;;;;;5.05;4.60;;;;;;;;;;6246258;23;20004;-83
2022/04/29 14:24:03;;;;;;;5.72;4.55;;;;;;;;;;6244057;23;20061;-79
2022/04/29 14:26:29;;;;;;;7.80;5.35;;;;;;;;;;6244842;23;20011;-82
2022/04/29 14:28:58;;;;;;;6.68;5.68;;;;;;;;;;6245183;23;20317;-83
2022/04/29 14:31:24;;;;;;;8.60;7.72;;;;;;;;;;6245179;23;20436;-82
2022/04/29 14:33:53;;;;;;;5.78;5.13;;;;;;;;;;6245133;23;20095;-79
2022/04/29 14:36:26;;;;;;;6.05;5.45;;;;;;;;;;6245142;23;20004;-81
2022/04/29 14:38:54;;;;;;;6.60;5.75;;;;;;;;;;6245067;23;19992;-82
2022/04/29 14:41:20;;;;;;;6.90;5.50;;;;;;;;;;6217842;23;20004;-81
2022/04/29 14:43:47;;;;;;;7.38;5.60;;;;;;;;;;6245129;23;20050;-80
2022/04/29 14:46:13;;;;;;;6.03;5.47;;;;;;;;;;6217928;23;20340;-80
2022/04/29 14:48:42;;;;;;;6.07;5.47;;;;;;;;;;6245185;23;20000;-81
2022/04/29 14:51:10;;;;;;;5.38;4.68;;;;;;;;;;6245265;23;20004;-82
2022/04/29 14:53:37;;;;;;;5.93;5.32;;;;;;;;;;6217928;23;20012;-82
2022/04/29 14:56:07;;;;;;;5.60;5.10;;;;;;;;;;6244457;23;20083;-81
2022/04/29 14:58:36;;;;;;;7.55;6.32;;;;;;;;;;6247864;23;20022;-80
2022/04/29 15:01:02;;;;;;;8.75;4.88;;;;;;;;;;6248442;23;19997;-79
2022/04/29 15:03:31;;;;;;;5.65;5.05;;;;;;;;;;6248381;23;20000;-82
2022/04/29 15:05:57;;;;;;;5.43;4.88;;;;;;;;;;6222158;23;20400;-84
2022/04/29 15:08:24;;;;;;;4.93;4.45;;;;;;;;;;6222105;23;20011;-82
2022/04/29 15:16:19;;;;;;;9.95;8.60;;;;;;;;;;6247836;23;20019;-80
2022/04/29 15:18:45;;;;;;;8.35;5.90;;;;;;;;;;6247969;23;20439;-81
2022/04/29 15:21:11;;;;;;;5.50;4.97;;;;;;;;;;6248033;23;20004;-81
2022/04/29 15:23:37;;;;;;;5.35;4.95;;;;;;;;;;6248136;23;20071;-83